Bookmark and Share
Track history (hours):
 

Amy C. Mc Allister

More information available from US FCC via Universal Licensing System and Coast Guard Vessel Documentation Center.

Last reported at 2014-Apr-18 12:33 UTC. Time now 2014-Apr-18 13:10 UTC.
Position N 40°48' W 073°51'.

Length 27 m; draft 4.9 m.

Type: Towing. MMSI: 366995040.

NotesDate/timePositionNaut miles runAvg speedWind from/ knotsBaromVisibWave heightAir tempDewpointWater temp
2014-Apr-18 12:33N 40°48' W 073°51'7 7.4
2014-Apr-18 11:33N 40°53' W 073°44'8 8.4
2014-Apr-18 10:33N 40°57' W 073°34'8 8.1
2014-Apr-18 09:33N 41°00' W 073°24'7 6.7
2014-Apr-18 08:33N 41°01' W 073°15'7 6.5
2014-Apr-18 07:33N 41°02' W 073°07'7 6.6
2014-Apr-18 06:33N 41°03' W 072°58'7 6.9
2014-Apr-18 05:33N 41°05' W 072°50'7 7.1
2014-Apr-18 04:33N 41°07' W 072°40'8 7.5
2014-Apr-18 03:33N 41°09' W 072°31'9 8.7
2014-Apr-18 02:34N 41°11' W 072°20'9 9.1
2014-Apr-18 01:33N 41°14' W 072°08'9 9.3
2014-Apr-18 00:33N 41°15' W 071°56'9 9.1
2014-Apr-17 23:33N 41°17' W 071°44'9 9.1
2014-Apr-17 22:34N 41°18' W 071°32'9 9.1
2014-Apr-17 21:33N 41°22' W 071°21'10 9.9
2014-Apr-17 20:33N 41°24' W 071°08'10 9.9
2014-Apr-17 19:30N 41°29' W 070°56'52 5.5
2014-Apr-17 10:04N 42°20' W 070°58'0 0.3
2014-Apr-17 09:18N 42°20' W 070°58'4 4.7
2014-Apr-17 08:29N 42°23' W 071°02'1 0.6
2014-Apr-17 06:32N 42°24' W 071°01'0 0.0
2014-Apr-17 05:33N 42°24' W 071°01'0 0.0
2014-Apr-17 04:33N 42°24' W 071°01'0 0.0
2014-Apr-17 03:33N 42°24' W 071°01'0 0.0
2014-Apr-17 02:13N 42°24' W 071°01'0 0.0
2014-Apr-17 01:30N 42°24' W 071°01'0 0.0
2014-Apr-16 23:31N 42°24' W 071°01'0 0.0
2014-Apr-16 22:23N 42°24' W 071°01'0 0.0
2014-Apr-16 21:22N 42°24' W 071°01'0 0.0
2014-Apr-16 20:05N 42°24' W 071°01'0 0.0
2014-Apr-16 17:33N 42°24' W 071°01'1 1.4
2014-Apr-16 16:33N 42°23' W 071°02'4 4.1
2014-Apr-16 15:33N 42°20' W 070°59'0 0.0
2014-Apr-16 12:33N 42°20' W 070°59'0 0.0
2014-Apr-16 11:33N 42°20' W 070°59'0 0.1
2014-Apr-16 10:33N 42°20' W 070°58'0 0.0
2014-Apr-16 09:31N 42°20' W 070°58'0 0.0
2014-Apr-16 08:33N 42°20' W 070°58'0 0.0
2014-Apr-16 07:33N 42°20' W 070°58'0 0.0
2014-Apr-16 06:20N 42°20' W 070°58'0 0.0
2014-Apr-16 05:33N 42°20' W 070°58'0 0.0
2014-Apr-16 04:33N 42°20' W 070°59'0 0.0
2014-Apr-16 03:33N 42°20' W 070°59'0 0.1
2014-Apr-16 02:33N 42°20' W 070°59'0 0.1
2014-Apr-16 01:33N 42°20' W 070°59'0 0.1
2014-Apr-16 00:33N 42°20' W 070°59'0 0.0
2014-Apr-15 23:33N 42°20' W 070°59'0 0.0
2014-Apr-15 22:33N 42°20' W 070°59'0 0.0
2014-Apr-15 21:33N 42°20' W 070°58'0 0.0
2014-Apr-15 20:33N 42°20' W 070°59'0 0.0
2014-Apr-15 19:33N 42°20' W 070°58'0 0.0
2014-Apr-15 18:33N 42°20' W 070°59'0 0.0
2014-Apr-15 17:33N 42°20' W 070°59'0 0.0
2014-Apr-15 16:33N 42°20' W 070°59'0 0.0
2014-Apr-15 15:33N 42°20' W 070°59'0 0.1
2014-Apr-15 14:33N 42°20' W 070°59'0 0.0
2014-Apr-15 12:34N 42°20' W 070°59'0 0.0
2014-Apr-15 11:34N 42°20' W 070°59'0 0.0
2014-Apr-15 10:34N 42°20' W 070°59'0 0.5
2014-Apr-15 09:34N 42°20' W 070°58'2 2.3
2014-Apr-15 08:33N 42°22' W 070°56'48 4.8
2014-Apr-14 22:32N 41°35' W 070°43'6 6.4
2014-Apr-14 21:31N 41°30' W 070°50'15 7.6
2014-Apr-14 19:33N 41°24' W 071°08'7 7.1
2014-Apr-14 18:33N 41°23' W 071°17'7 6.8
2014-Apr-14 17:33N 41°20' W 071°25'7 7.4
2014-Apr-14 16:34N 41°18' W 071°35'8 7.9
2014-Apr-14 15:32N 41°16' W 071°45'7 6.8
2014-Apr-14 14:34N 41°15' W 071°54'7 6.6
2014-Apr-14 13:34N 41°14' W 072°03'11 5.6
2014-Apr-14 11:34N 41°12' W 072°17'6 6.0
2014-Apr-14 10:34N 41°10' W 072°25'6 6.1
2014-Apr-14 09:33N 41°08' W 072°33'7 7.2
2014-Apr-14 08:33N 41°07' W 072°42'8 7.6
2014-Apr-14 07:33N 41°05' W 072°52'8 8.1
2014-Apr-14 06:33N 41°03' W 073°02'8 8.2
2014-Apr-14 05:33N 41°02' W 073°13'52 7.3
2014-Apr-13 22:30N 40°36' W 074°12'4 0.9
2014-Apr-13 18:31N 40°39' W 074°10'1 0.6
2014-Apr-13 17:30N 40°38' W 074°10'0 0.0
2014-Apr-13 16:18N 40°38' W 074°10'0 0.0
2014-Apr-13 15:33N 40°38' W 074°10'0 0.0
2014-Apr-13 14:33N 40°38' W 074°10'2 1.7
2014-Apr-13 13:33N 40°39' W 074°08'2 1.7
2014-Apr-13 12:33N 40°39' W 074°06'3 3.3
2014-Apr-13 11:32N 40°38' W 074°10'0 0.0
2014-Apr-13 10:33N 40°38' W 074°10'0 0.0
2014-Apr-13 09:32N 40°38' W 074°10'5 5.5
2014-Apr-13 08:33N 40°34' W 074°13'2 2.0
2014-Apr-13 07:33N 40°32' W 074°15'0 0.1
2014-Apr-13 05:30N 40°33' W 074°15'1 0.7
2014-Apr-13 04:33N 40°33' W 074°15'7 6.9
2014-Apr-13 03:33N 40°39' W 074°09'7 7.0
2014-Apr-13 02:33N 40°43' W 074°02'5 5.2
2014-Apr-13 01:31N 40°47' W 073°56'7 7.2
2014-Apr-13 00:33N 40°48' W 073°48'19 8.4
2014-Apr-12 22:20N 40°59' W 073°28'7 8.9
2014-Apr-12 21:33N 41°00' W 073°18'9 8.2
2014-Apr-12 20:30N 40°60' W 073°07'3 0.8
2014-Apr-12 17:15N 40°58' W 073°05'0 0.0
2014-Apr-12 16:32N 40°58' W 073°05'1 1.0
2014-Apr-12 15:33N 40°57' W 073°04'0 0.0
2014-Apr-12 14:33N 40°57' W 073°04'1 0.3
2014-Apr-12 11:22N 40°58' W 073°05'0 0.0
2014-Apr-12 10:33N 40°58' W 073°05'0 0.0
2014-Apr-12 09:33N 40°58' W 073°05'0 0.0
2014-Apr-12 08:28N 40°58' W 073°05'0 0.0
2014-Apr-12 07:06N 40°58' W 073°05'1 0.7
2014-Apr-12 06:07N 40°57' W 073°05'3 5.0
2014-Apr-12 05:33N 40°59' W 073°07'9 8.6
2014-Apr-12 04:33N 41°00' W 073°18'8 8.2
2014-Apr-12 03:33N 40°59' W 073°29'23 7.2
2014-Apr-12 00:21N 40°47' W 073°55'6 7.3
2014-Apr-11 23:33N 40°42' W 073°60'4 3.9
2014-Apr-11 22:33N 40°39' W 074°03'0 0.0
2014-Apr-11 21:33N 40°39' W 074°03'2 2.2
2014-Apr-11 20:33N 40°39' W 074°06'5 5.0
2014-Apr-11 19:33N 40°38' W 074°12'0 0.1
2014-Apr-11 18:33N 40°38' W 074°12'2 2.0
2014-Apr-11 17:33N 40°38' W 074°10'0 0.0
2014-Apr-11 16:33N 40°38' W 074°10'0 0.0
2014-Apr-11 15:33N 40°38' W 074°10'0 0.0
2014-Apr-11 14:33N 40°38' W 074°10'6 5.6
2014-Apr-11 13:33N 40°40' W 074°03'7 3.4
2014-Apr-11 11:34N 40°45' W 073°57'6 6.2
2014-Apr-11 10:34N 40°40' W 074°02'0 0.3
2014-Apr-11 09:33N 40°40' W 074°02'0 0.1
2014-Apr-11 08:34N 40°40' W 074°02'5 4.6
2014-Apr-11 07:33N 40°39' W 074°08'3 0.5
2014-Apr-11 00:33N 40°38' W 074°12'4 3.9
2014-Apr-10 23:33N 40°39' W 074°07'5 5.3
2014-Apr-10 22:33N 40°42' W 074°02'2 2.1
2014-Apr-10 21:33N 40°44' W 074°01'2 2.0
2014-Apr-10 20:33N 40°42' W 073°60'5 5.3
2014-Apr-10 19:33N 40°47' W 073°56'24 7.6
2014-Apr-10 16:21N 40°59' W 073°28'7 8.6
2014-Apr-10 15:33N 41°00' W 073°19'9 8.8
2014-Apr-10 14:33N 40°60' W 073°07'2 0.2
2014-Apr-09 22:31N 40°60' W 073°10'8 8.0
2014-Apr-09 21:31N 41°00' W 073°21'26 7.7
2014-Apr-09 18:10N 40°48' W 073°51'6 7.4
2014-Apr-09 17:25N 40°46' W 073°57'6 7.4
2014-Apr-09 16:34N 40°40' W 074°02'4 3.8
2014-Apr-09 15:33N 40°39' W 074°07'2 1.8
2014-Apr-09 14:31N 40°39' W 074°09'0 0.1
2014-Apr-09 13:33N 40°40' W 074°09'0 0.0
2014-Apr-09 12:33N 40°40' W 074°09'1 1.2
2014-Apr-09 11:33N 40°41' W 074°09'2 2.3
2014-Apr-09 10:33N 40°38' W 074°09'2 2.1
2014-Apr-09 09:33N 40°39' W 074°06'2 2.3
2014-Apr-09 08:33N 40°39' W 074°09'0 0.4
2014-Apr-09 07:33N 40°40' W 074°09'0 0.1
2014-Apr-09 06:34N 40°40' W 074°09'1 1.3
2014-Apr-09 05:27N 40°38' W 074°10'0 0.0
2014-Apr-09 04:16N 40°38' W 074°10'0 0.0
2014-Apr-09 03:33N 40°38' W 074°10'0 0.0
2014-Apr-09 02:33N 40°38' W 074°10'0 0.0
2014-Apr-08 23:05N 40°38' W 074°10'0 0.0
2014-Apr-08 14:33N 40°38' W 074°10'0 0.0
2014-Apr-08 13:32N 40°38' W 074°10'0 0.0
2014-Apr-08 12:33N 40°38' W 074°10'  

Dump ship's entire track history

sailing weather and tide predictions

Amy C. Mc Allister — WCZ9520 — position and weather